sensor_id;sensor_type;location;lat;lon;timestamp;P1;durP1;ratioP1;P2;durP2;ratioP2
40314;SDS011;26021;45.640;11.302;2022-09-27T00:02:07;27.67;;;23.15;;
40314;SDS011;26021;45.640;11.302;2022-09-27T00:04:32;23.02;;;20.52;;
40314;SDS011;26021;45.640;11.302;2022-09-27T00:06:58;24.38;;;21.83;;
40314;SDS011;26021;45.640;11.302;2022-09-27T00:09:24;26.08;;;22.70;;
40314;SDS011;26021;45.640;11.302;2022-09-27T00:11:49;24.65;;;22.00;;
40314;SDS011;26021;45.640;11.302;2022-09-27T00:14:15;26.67;;;23.58;;
40314;SDS011;26021;45.640;11.302;2022-09-27T00:16:42;24.63;;;21.98;;
40314;SDS011;26021;45.640;11.302;2022-09-27T00:19:18;24.60;;;21.25;;
40314;SDS011;26021;45.640;11.302;2022-09-27T00:21:46;25.40;;;21.10;;
40314;SDS011;26021;45.640;11.302;2022-09-27T00:24:15;28.15;;;23.75;;
40314;SDS011;26021;45.640;11.302;2022-09-27T00:26:45;26.95;;;23.98;;
40314;SDS011;26021;45.640;11.302;2022-09-27T00:29:12;24.77;;;22.13;;
40314;SDS011;26021;45.640;11.302;2022-09-27T00:31:39;23.90;;;19.83;;
40314;SDS011;26021;45.640;11.302;2022-09-27T00:34:05;22.20;;;19.83;;
40314;SDS011;26021;45.640;11.302;2022-09-27T00:36:32;23.27;;;20.73;;
40314;SDS011;26021;45.640;11.302;2022-09-27T00:38:58;21.58;;;19.27;;
40314;SDS011;26021;45.640;11.302;2022-09-27T00:41:29;20.52;;;18.33;;
40314;SDS011;26021;45.640;11.302;2022-09-27T00:43:58;24.00;;;20.10;;
40314;SDS011;26021;45.640;11.302;2022-09-27T00:48:55;21.75;;;19.50;;
40314;SDS011;26021;45.640;11.302;2022-09-27T00:51:39;20.58;;;18.05;;
40314;SDS011;26021;45.640;11.302;2022-09-27T00:54:06;23.08;;;18.55;;
40314;SDS011;26021;45.640;11.302;2022-09-27T00:56:35;18.85;;;16.85;;
40314;SDS011;26021;45.640;11.302;2022-09-27T00:59:21;18.00;;;16.08;;
40314;SDS011;26021;45.640;11.302;2022-09-27T01:01:54;17.23;;;15.43;;
40314;SDS011;26021;45.640;11.302;2022-09-27T01:04:21;20.75;;;18.25;;
40314;SDS011;26021;45.640;11.302;2022-09-27T01:06:50;22.90;;;18.33;;
40314;SDS011;26021;45.640;11.302;2022-09-27T01:09:16;21.08;;;17.98;;
40314;SDS011;26021;45.640;11.302;2022-09-27T01:25:47;21.20;;;17.73;;
40314;SDS011;26021;45.640;11.302;2022-09-27T01:28:46;16.58;;;14.77;;
40314;SDS011;26021;45.640;11.302;2022-09-27T01:39:19;16.05;;;14.35;;
40314;SDS011;26021;45.640;11.302;2022-09-27T01:41:48;16.13;;;14.40;;
40314;SDS011;26021;45.640;11.302;2022-09-27T01:47:30;19.10;;;17.08;;
40314;SDS011;26021;45.640;11.302;2022-09-27T01:50:02;19.95;;;16.85;;
40314;SDS011;26021;45.640;11.302;2022-09-27T01:52:38;20.23;;;17.35;;
40314;SDS011;26021;45.640;11.302;2022-09-27T01:55:12;22.98;;;18.48;;
40314;SDS011;26021;45.640;11.302;2022-09-27T01:57:42;27.17;;;20.27;;
40314;SDS011;26021;45.640;11.302;2022-09-27T02:00:15;26.80;;;20.60;;
40314;SDS011;26021;45.640;11.302;2022-09-27T02:03:04;27.73;;;20.30;;
40314;SDS011;26021;45.640;11.302;2022-09-27T02:05:53;25.02;;;19.17;;
40314;SDS011;26021;45.640;11.302;2022-09-27T02:08:25;21.90;;;19.52;;
40314;SDS011;26021;45.640;11.302;2022-09-27T02:11:00;21.90;;;18.92;;
40314;SDS011;26021;45.640;11.302;2022-09-27T02:13:39;22.55;;;20.08;;
40314;SDS011;26021;45.640;11.302;2022-09-27T02:27:11;21.30;;;18.95;;
40314;SDS011;26021;45.640;11.302;2022-09-27T02:29:44;24.52;;;19.88;;
40314;SDS011;26021;45.640;11.302;2022-09-27T02:32:17;22.38;;;19.95;;
40314;SDS011;26021;45.640;11.302;2022-09-27T02:34:43;26.40;;;21.77;;
40314;SDS011;26021;45.640;11.302;2022-09-27T02:37:10;24.48;;;21.33;;
40314;SDS011;26021;45.640;11.302;2022-09-27T02:39:36;23.65;;;20.48;;
40314;SDS011;26021;45.640;11.302;2022-09-27T02:42:02;24.17;;;20.85;;
40314;SDS011;26021;45.640;11.302;2022-09-27T02:44:28;25.92;;;23.10;;
40314;SDS011;26021;45.640;11.302;2022-09-27T02:47:02;23.90;;;20.52;;
40314;SDS011;26021;45.640;11.302;2022-09-27T02:49:50;22.30;;;19.92;;
40314;SDS011;26021;45.640;11.302;2022-09-27T02:55:19;25.10;;;21.70;;
40314;SDS011;26021;45.640;11.302;2022-09-27T02:57:59;25.15;;;20.98;;
40314;SDS011;26021;45.640;11.302;2022-09-27T03:05:53;27.52;;;23.33;;
40314;SDS011;26021;45.640;11.302;2022-09-27T03:08:28;26.88;;;22.65;;
40314;SDS011;26021;45.640;11.302;2022-09-27T03:10:53;26.15;;;23.35;;
40314;SDS011;26021;45.640;11.302;2022-09-27T03:13:19;27.10;;;21.17;;
40314;SDS011;26021;45.640;11.302;2022-09-27T03:15:44;25.23;;;21.63;;
40314;SDS011;26021;45.640;11.302;2022-09-27T03:18:09;25.00;;;22.25;;
40314;SDS011;26021;45.640;11.302;2022-09-27T03:20:35;27.42;;;22.58;;
40314;SDS011;26021;45.640;11.302;2022-09-27T03:23:00;25.63;;;22.90;;
40314;SDS011;26021;45.640;11.302;2022-09-27T03:25:26;26.38;;;22.70;;
40314;SDS011;26021;45.640;11.302;2022-09-27T03:27:52;25.98;;;22.80;;
40314;SDS011;26021;45.640;11.302;2022-09-27T03:30:18;26.33;;;22.55;;
40314;SDS011;26021;45.640;11.302;2022-09-27T03:32:44;29.40;;;24.58;;
40314;SDS011;26021;45.640;11.302;2022-09-27T03:35:11;28.55;;;25.10;;
40314;SDS011;26021;45.640;11.302;2022-09-27T03:37:37;29.80;;;25.08;;
40314;SDS011;26021;45.640;11.302;2022-09-27T03:40:03;28.20;;;24.42;;
40314;SDS011;26021;45.640;11.302;2022-09-27T03:42:29;31.52;;;23.52;;
40314;SDS011;26021;45.640;11.302;2022-09-27T03:44:55;29.30;;;24.02;;
40314;SDS011;26021;45.640;11.302;2022-09-27T03:47:20;28.40;;;23.02;;
40314;SDS011;26021;45.640;11.302;2022-09-27T03:49:47;27.08;;;22.80;;
40314;SDS011;26021;45.640;11.302;2022-09-27T03:52:13;25.58;;;21.77;;
40314;SDS011;26021;45.640;11.302;2022-09-27T03:54:39;27.95;;;23.40;;
40314;SDS011;26021;45.640;11.302;2022-09-27T03:57:04;30.70;;;23.67;;
40314;SDS011;26021;45.640;11.302;2022-09-27T03:59:30;29.75;;;25.02;;
40314;SDS011;26021;45.640;11.302;2022-09-27T04:01:56;27.15;;;23.60;;
40314;SDS011;26021;45.640;11.302;2022-09-27T04:04:21;27.63;;;23.55;;
40314;SDS011;26021;45.640;11.302;2022-09-27T04:06:47;29.25;;;23.83;;
40314;SDS011;26021;45.640;11.302;2022-09-27T04:09:13;31.58;;;25.60;;
40314;SDS011;26021;45.640;11.302;2022-09-27T04:11:38;29.98;;;25.30;;
40314;SDS011;26021;45.640;11.302;2022-09-27T04:14:04;30.73;;;25.70;;
40314;SDS011;26021;45.640;11.302;2022-09-27T04:16:29;30.52;;;26.02;;
40314;SDS011;26021;45.640;11.302;2022-09-27T04:18:56;31.27;;;26.95;;
40314;SDS011;26021;45.640;11.302;2022-09-27T04:21:22;30.27;;;25.60;;
40314;SDS011;26021;45.640;11.302;2022-09-27T04:23:48;36.17;;;27.02;;
40314;SDS011;26021;45.640;11.302;2022-09-27T04:26:13;30.13;;;26.13;;
40314;SDS011;26021;45.640;11.302;2022-09-27T04:28:39;31.63;;;26.83;;
40314;SDS011;26021;45.640;11.302;2022-09-27T04:31:04;29.95;;;25.75;;
40314;SDS011;26021;45.640;11.302;2022-09-27T04:33:30;28.27;;;24.83;;
40314;SDS011;26021;45.640;11.302;2022-09-27T04:35:56;29.90;;;24.58;;
40314;SDS011;26021;45.640;11.302;2022-09-27T04:38:40;27.75;;;24.23;;
40314;SDS011;26021;45.640;11.302;2022-09-27T04:41:06;28.17;;;24.23;;
40314;SDS011;26021;45.640;11.302;2022-09-27T04:43:32;28.15;;;24.17;;
40314;SDS011;26021;45.640;11.302;2022-09-27T04:45:58;26.45;;;22.92;;
40314;SDS011;26021;45.640;11.302;2022-09-27T04:48:23;25.05;;;22.30;;
40314;SDS011;26021;45.640;11.302;2022-09-27T04:50:56;24.67;;;21.95;;
40314;SDS011;26021;45.640;11.302;2022-09-27T04:53:23;27.20;;;22.95;;
40314;SDS011;26021;45.640;11.302;2022-09-27T04:55:50;23.67;;;21.10;;
40314;SDS011;26021;45.640;11.302;2022-09-27T04:58:18;23.05;;;20.55;;
40314;SDS011;26021;45.640;11.302;2022-09-27T05:00:43;24.20;;;21.15;;
40314;SDS011;26021;45.640;11.302;2022-09-27T05:03:10;22.70;;;20.02;;
40314;SDS011;26021;45.640;11.302;2022-09-27T05:05:36;20.63;;;18.52;;
40314;SDS011;26021;45.640;11.302;2022-09-27T05:08:01;20.60;;;18.50;;
40314;SDS011;26021;45.640;11.302;2022-09-27T05:10:27;21.40;;;19.20;;
40314;SDS011;26021;45.640;11.302;2022-09-27T05:12:52;19.30;;;17.30;;
40314;SDS011;26021;45.640;11.302;2022-09-27T05:15:18;18.75;;;16.85;;
40314;SDS011;26021;45.640;11.302;2022-09-27T05:17:43;17.80;;;16.10;;
40314;SDS011;26021;45.640;11.302;2022-09-27T05:20:09;16.60;;;15.00;;
40314;SDS011;26021;45.640;11.302;2022-09-27T05:22:35;18.02;;;16.23;;
40314;SDS011;26021;45.640;11.302;2022-09-27T05:25:02;17.10;;;15.40;;
40314;SDS011;26021;45.640;11.302;2022-09-27T05:27:28;16.58;;;14.98;;
40314;SDS011;26021;45.640;11.302;2022-09-27T05:29:55;15.52;;;14.02;;
40314;SDS011;26021;45.640;11.302;2022-09-27T05:32:20;16.00;;;14.40;;
40314;SDS011;26021;45.640;11.302;2022-09-27T05:34:47;16.85;;;15.10;;
40314;SDS011;26021;45.640;11.302;2022-09-27T05:37:13;16.60;;;14.73;;
40314;SDS011;26021;45.640;11.302;2022-09-27T05:39:38;16.17;;;14.65;;
40314;SDS011;26021;45.640;11.302;2022-09-27T05:42:04;17.15;;;15.35;;
40314;SDS011;26021;45.640;11.302;2022-09-27T05:44:31;16.15;;;14.55;;
40314;SDS011;26021;45.640;11.302;2022-09-27T05:46:58;15.40;;;13.90;;
40314;SDS011;26021;45.640;11.302;2022-09-27T05:49:25;18.13;;;16.23;;
40314;SDS011;26021;45.640;11.302;2022-09-27T05:51:51;17.25;;;15.45;;
40314;SDS011;26021;45.640;11.302;2022-09-27T05:54:17;17.42;;;15.63;;
40314;SDS011;26021;45.640;11.302;2022-09-27T05:56:42;18.08;;;16.35;;
40314;SDS011;26021;45.640;11.302;2022-09-27T05:59:08;17.23;;;15.57;;
40314;SDS011;26021;45.640;11.302;2022-09-27T06:01:33;16.25;;;14.50;;
40314;SDS011;26021;45.640;11.302;2022-09-27T06:03:59;15.73;;;14.07;;
40314;SDS011;26021;45.640;11.302;2022-09-27T06:06:26;15.82;;;14.35;;
40314;SDS011;26021;45.640;11.302;2022-09-27T06:08:52;15.82;;;14.23;;
40314;SDS011;26021;45.640;11.302;2022-09-27T06:11:17;15.02;;;13.52;;
40314;SDS011;26021;45.640;11.302;2022-09-27T06:13:43;17.02;;;15.23;;
40314;SDS011;26021;45.640;11.302;2022-09-27T06:16:09;16.83;;;14.93;;
40314;SDS011;26021;45.640;11.302;2022-09-27T06:18:35;15.57;;;13.90;;
40314;SDS011;26021;45.640;11.302;2022-09-27T06:21:02;15.63;;;14.02;;
40314;SDS011;26021;45.640;11.302;2022-09-27T06:23:29;15.05;;;13.55;;
40314;SDS011;26021;45.640;11.302;2022-09-27T06:26:01;15.48;;;13.98;;
40314;SDS011;26021;45.640;11.302;2022-09-27T06:28:27;15.15;;;13.68;;
40314;SDS011;26021;45.640;11.302;2022-09-27T06:30:53;14.82;;;13.32;;
40314;SDS011;26021;45.640;11.302;2022-09-27T06:33:19;14.57;;;13.07;;
40314;SDS011;26021;45.640;11.302;2022-09-27T06:35:46;14.40;;;13.00;;
40314;SDS011;26021;45.640;11.302;2022-09-27T06:38:13;13.82;;;12.52;;
40314;SDS011;26021;45.640;11.302;2022-09-27T06:40:40;15.15;;;13.55;;
40314;SDS011;26021;45.640;11.302;2022-09-27T06:43:10;14.73;;;13.15;;
40314;SDS011;26021;45.640;11.302;2022-09-27T06:45:37;14.73;;;13.23;;
40314;SDS011;26021;45.640;11.302;2022-09-27T06:48:04;14.55;;;12.85;;
40314;SDS011;26021;45.640;11.302;2022-09-27T06:50:31;13.00;;;11.63;;
40314;SDS011;26021;45.640;11.302;2022-09-27T06:52:59;12.40;;;11.20;;
40314;SDS011;26021;45.640;11.302;2022-09-27T06:55:25;11.80;;;10.60;;
40314;SDS011;26021;45.640;11.302;2022-09-27T06:57:54;13.65;;;11.15;;
40314;SDS011;26021;45.640;11.302;2022-09-27T07:00:39;12.60;;;10.93;;
40314;SDS011;26021;45.640;11.302;2022-09-27T07:03:07;12.68;;;11.45;;
40314;SDS011;26021;45.640;11.302;2022-09-27T07:05:35;10.52;;;9.52;;
40314;SDS011;26021;45.640;11.302;2022-09-27T07:08:02;11.02;;;9.93;;
40314;SDS011;26021;45.640;11.302;2022-09-27T07:10:29;10.80;;;9.75;;
40314;SDS011;26021;45.640;11.302;2022-09-27T07:13:05;11.48;;;9.88;;
40314;SDS011;26021;45.640;11.302;2022-09-27T07:15:32;11.43;;;10.32;;
40314;SDS011;26021;45.640;11.302;2022-09-27T07:18:02;12.40;;;11.10;;
40314;SDS011;26021;45.640;11.302;2022-09-27T07:20:29;13.18;;;11.68;;
40314;SDS011;26021;45.640;11.302;2022-09-27T07:22:55;13.85;;;12.18;;
40314;SDS011;26021;45.640;11.302;2022-09-27T07:25:21;13.30;;;11.98;;
40314;SDS011;26021;45.640;11.302;2022-09-27T07:27:48;13.23;;;11.93;;
40314;SDS011;26021;45.640;11.302;2022-09-27T07:30:13;13.55;;;11.15;;
40314;SDS011;26021;45.640;11.302;2022-09-27T07:32:40;13.52;;;12.23;;
40314;SDS011;26021;45.640;11.302;2022-09-27T07:35:07;13.57;;;12.18;;
40314;SDS011;26021;45.640;11.302;2022-09-27T07:37:34;12.82;;;11.27;;
40314;SDS011;26021;45.640;11.302;2022-09-27T07:40:00;14.02;;;12.70;;
40314;SDS011;26021;45.640;11.302;2022-09-27T07:42:27;14.00;;;12.70;;
40314;SDS011;26021;45.640;11.302;2022-09-27T07:44:56;14.10;;;12.75;;
40314;SDS011;26021;45.640;11.302;2022-09-27T07:47:22;16.52;;;14.65;;
40314;SDS011;26021;45.640;11.302;2022-09-27T07:49:51;13.82;;;12.40;;
40314;SDS011;26021;45.640;11.302;2022-09-27T07:52:17;14.68;;;13.27;;
40314;SDS011;26021;45.640;11.302;2022-09-27T07:54:44;13.35;;;12.02;;
40314;SDS011;26021;45.640;11.302;2022-09-27T07:57:10;11.75;;;10.63;;
40314;SDS011;26021;45.640;11.302;2022-09-27T07:59:36;10.15;;;9.23;;
40314;SDS011;26021;45.640;11.302;2022-09-27T08:02:01;9.52;;;8.52;;
40314;SDS011;26021;45.640;11.302;2022-09-27T08:04:27;9.23;;;8.43;;
40314;SDS011;26021;45.640;11.302;2022-09-27T08:06:53;9.88;;;8.65;;
40314;SDS011;26021;45.640;11.302;2022-09-27T08:09:19;8.43;;;7.72;;
40314;SDS011;26021;45.640;11.302;2022-09-27T08:11:45;8.32;;;7.63;;
40314;SDS011;26021;45.640;11.302;2022-09-27T08:14:13;5.07;;;4.68;;
40314;SDS011;26021;45.640;11.302;2022-09-27T08:16:39;6.63;;;5.70;;
40314;SDS011;26021;45.640;11.302;2022-09-27T08:19:05;6.10;;;5.60;;
40314;SDS011;26021;45.640;11.302;2022-09-27T08:21:31;5.63;;;5.13;;
40314;SDS011;26021;45.640;11.302;2022-09-27T08:23:57;2.88;;;2.65;;
40314;SDS011;26021;45.640;11.302;2022-09-27T08:26:23;2.60;;;2.40;;
40314;SDS011;26021;45.640;11.302;2022-09-27T08:28:51;2.50;;;2.30;;
40314;SDS011;26021;45.640;11.302;2022-09-27T08:31:16;2.83;;;2.63;;
40314;SDS011;26021;45.640;11.302;2022-09-27T08:33:42;4.72;;;2.28;;
40314;SDS011;26021;45.640;11.302;2022-09-27T08:36:11;3.05;;;2.30;;
40314;SDS011;26021;45.640;11.302;2022-09-27T08:38:37;5.00;;;2.50;;
40314;SDS011;26021;45.640;11.302;2022-09-27T08:41:07;4.82;;;2.55;;
40314;SDS011;26021;45.640;11.302;2022-09-27T08:43:45;3.25;;;2.60;;
40314;SDS011;26021;45.640;11.302;2022-09-27T08:46:31;4.40;;;2.67;;
40314;SDS011;26021;45.640;11.302;2022-09-27T08:49:10;2.90;;;2.35;;
40314;SDS011;26021;45.640;11.302;2022-09-27T08:51:41;2.28;;;2.17;;
40314;SDS011;26021;45.640;11.302;2022-09-27T08:54:14;2.60;;;2.50;;
40314;SDS011;26021;45.640;11.302;2022-09-27T08:56:45;3.35;;;2.50;;
40314;SDS011;26021;45.640;11.302;2022-09-27T08:59:14;2.00;;;1.90;;
40314;SDS011;26021;45.640;11.302;2022-09-27T09:01:46;2.70;;;2.50;;
40314;SDS011;26021;45.640;11.302;2022-09-27T09:04:14;1.52;;;1.40;;
40314;SDS011;26021;45.640;11.302;2022-09-27T09:12:18;1.90;;;1.33;;
40314;SDS011;26021;45.640;11.302;2022-09-27T09:27:39;3.90;;;3.50;;
40314;SDS011;26021;45.640;11.302;2022-09-27T09:32:49;4.38;;;3.38;;
40314;SDS011;26021;45.640;11.302;2022-09-27T09:36:19;4.93;;;4.38;;
40314;SDS011;26021;45.640;11.302;2022-09-27T09:41:06;5.13;;;4.72;;
40314;SDS011;26021;45.640;11.302;2022-09-27T09:43:39;5.10;;;4.70;;
40314;SDS011;26021;45.640;11.302;2022-09-27T09:46:40;5.70;;;4.97;;
40314;SDS011;26021;45.640;11.302;2022-09-27T09:51:43;4.80;;;4.40;;
40314;SDS011;26021;45.640;11.302;2022-09-27T09:54:25;4.68;;;4.28;;
40314;SDS011;26021;45.640;11.302;2022-09-27T10:01:57;4.97;;;4.57;;
40314;SDS011;26021;45.640;11.302;2022-09-27T10:04:38;5.93;;;5.43;;
40314;SDS011;26021;45.640;11.302;2022-09-27T10:07:04;5.38;;;4.30;;
40314;SDS011;26021;45.640;11.302;2022-09-27T10:09:31;5.30;;;4.80;;
40314;SDS011;26021;45.640;11.302;2022-09-27T10:11:57;6.15;;;5.47;;
40314;SDS011;26021;45.640;11.302;2022-09-27T10:14:24;9.00;;;5.93;;
40314;SDS011;26021;45.640;11.302;2022-09-27T10:16:56;7.55;;;6.68;;
40314;SDS011;26021;45.640;11.302;2022-09-27T10:19:28;4.95;;;4.55;;
40314;SDS011;26021;45.640;11.302;2022-09-27T10:21:58;6.32;;;5.72;;
40314;SDS011;26021;45.640;11.302;2022-09-27T10:24:27;5.68;;;5.25;;
40314;SDS011;26021;45.640;11.302;2022-09-27T10:26:55;5.43;;;4.93;;
40314;SDS011;26021;45.640;11.302;2022-09-27T10:29:26;5.65;;;5.15;;
40314;SDS011;26021;45.640;11.302;2022-09-27T10:31:54;6.88;;;4.93;;
40314;SDS011;26021;45.640;11.302;2022-09-27T10:34:27;5.13;;;4.72;;
40314;SDS011;26021;45.640;11.302;2022-09-27T10:39:40;5.25;;;4.85;;
40314;SDS011;26021;45.640;11.302;2022-09-27T10:45:19;6.40;;;5.80;;
40314;SDS011;26021;45.640;11.302;2022-09-27T10:47:51;6.88;;;6.07;;
40314;SDS011;26021;45.640;11.302;2022-09-27T10:50:23;6.72;;;5.97;;
40314;SDS011;26021;45.640;11.302;2022-09-27T10:53:03;5.93;;;5.20;;
40314;SDS011;26021;45.640;11.302;2022-09-27T10:55:31;7.03;;;5.63;;
40314;SDS011;26021;45.640;11.302;2022-09-27T10:57:59;5.97;;;5.20;;
40314;SDS011;26021;45.640;11.302;2022-09-27T11:00:30;5.35;;;4.85;;
40314;SDS011;26021;45.640;11.302;2022-09-27T11:02:59;5.90;;;5.40;;
40314;SDS011;26021;45.640;11.302;2022-09-27T11:05:34;7.18;;;5.82;;
40314;SDS011;26021;45.640;11.302;2022-09-27T11:10:43;6.22;;;5.57;;
40314;SDS011;26021;45.640;11.302;2022-09-27T11:26:49;10.15;;;7.72;;
40314;SDS011;26021;45.640;11.302;2022-09-27T11:29:33;10.93;;;8.00;;
40314;SDS011;26021;45.640;11.302;2022-09-27T11:32:07;10.43;;;9.38;;
40314;SDS011;26021;45.640;11.302;2022-09-27T11:46:33;11.88;;;10.13;;
40314;SDS011;26021;45.640;11.302;2022-09-27T12:02:44;9.40;;;8.38;;
40314;SDS011;26021;45.640;11.302;2022-09-27T12:09:00;9.57;;;8.23;;
40314;SDS011;26021;45.640;11.302;2022-09-27T12:11:43;9.60;;;7.78;;
40314;SDS011;26021;45.640;11.302;2022-09-27T12:14:17;7.60;;;6.35;;
40314;SDS011;26021;45.640;11.302;2022-09-27T12:17:01;6.20;;;5.60;;
40314;SDS011;26021;45.640;11.302;2022-09-27T12:19:31;5.75;;;4.47;;
40314;SDS011;26021;45.640;11.302;2022-09-27T12:22:05;4.95;;;4.45;;
40314;SDS011;26021;45.640;11.302;2022-09-27T12:24:37;5.82;;;4.05;;
40314;SDS011;26021;45.640;11.302;2022-09-27T12:27:07;5.13;;;3.38;;
40314;SDS011;26021;45.640;11.302;2022-09-27T12:29:38;4.97;;;3.72;;
40314;SDS011;26021;45.640;11.302;2022-09-27T12:35:00;3.53;;;3.22;;
40314;SDS011;26021;45.640;11.302;2022-09-27T12:37:30;4.38;;;3.33;;
40314;SDS011;26021;45.640;11.302;2022-09-27T12:40:05;3.72;;;3.40;;
40314;SDS011;26021;45.640;11.302;2022-09-27T12:42:44;3.75;;;3.38;;
40314;SDS011;26021;45.640;11.302;2022-09-27T12:45:15;4.50;;;4.05;;
40314;SDS011;26021;45.640;11.302;2022-09-27T12:50:37;4.78;;;4.32;;
40314;SDS011;26021;45.640;11.302;2022-09-27T13:06:54;4.25;;;3.90;;
40314;SDS011;26021;45.640;11.302;2022-09-27T13:09:44;3.67;;;3.38;;
40314;SDS011;26021;45.640;11.302;2022-09-27T13:12:23;6.57;;;4.05;;
40314;SDS011;26021;45.640;11.302;2022-09-27T13:15:11;4.03;;;3.65;;
40314;SDS011;26021;45.640;11.302;2022-09-27T13:25:48;4.53;;;3.80;;
40314;SDS011;26021;45.640;11.302;2022-09-27T13:30:59;4.70;;;3.63;;
40314;SDS011;26021;45.640;11.302;2022-09-27T13:47:19;4.38;;;3.92;;
40314;SDS011;26021;45.640;11.302;2022-09-27T13:50:13;4.03;;;3.70;;
40314;SDS011;26021;45.640;11.302;2022-09-27T14:01:00;4.30;;;3.63;;
40314;SDS011;26021;45.640;11.302;2022-09-27T14:03:36;4.63;;;3.45;;
40314;SDS011;26021;45.640;11.302;2022-09-27T14:06:20;7.05;;;3.35;;
40314;SDS011;26021;45.640;11.302;2022-09-27T14:08:59;4.97;;;3.83;;
40314;SDS011;26021;45.640;11.302;2022-09-27T14:11:39;4.88;;;4.20;;
40314;SDS011;26021;45.640;11.302;2022-09-27T14:14:06;4.20;;;3.90;;
40314;SDS011;26021;45.640;11.302;2022-09-27T14:16:42;4.07;;;3.55;;
40314;SDS011;26021;45.640;11.302;2022-09-27T14:19:14;3.92;;;3.53;;
40314;SDS011;26021;45.640;11.302;2022-09-27T14:21:42;4.47;;;3.90;;
40314;SDS011;26021;45.640;11.302;2022-09-27T14:26:47;3.67;;;3.15;;
40314;SDS011;26021;45.640;11.302;2022-09-27T14:29:17;6.25;;;4.10;;
40314;SDS011;26021;45.640;11.302;2022-09-27T14:31:45;4.45;;;4.05;;
40314;SDS011;26021;45.640;11.302;2022-09-27T14:34:13;4.85;;;4.38;;
40314;SDS011;26021;45.640;11.302;2022-09-27T14:36:39;5.15;;;4.57;;
40314;SDS011;26021;45.640;11.302;2022-09-27T14:39:31;4.15;;;3.85;;
40314;SDS011;26021;45.640;11.302;2022-09-27T14:42:02;5.43;;;3.85;;
40314;SDS011;26021;45.640;11.302;2022-09-27T14:44:30;7.28;;;4.55;;
40314;SDS011;26021;45.640;11.302;2022-09-27T14:49:52;4.82;;;3.95;;
40314;SDS011;26021;45.640;11.302;2022-09-27T14:52:23;4.57;;;3.50;;
40314;SDS011;26021;45.640;11.302;2022-09-27T14:57:32;3.78;;;3.47;;
40314;SDS011;26021;45.640;11.302;2022-09-27T15:00:01;5.65;;;4.55;;
40314;SDS011;26021;45.640;11.302;2022-09-27T15:02:41;4.50;;;4.10;;
40314;SDS011;26021;45.640;11.302;2022-09-27T15:05:14;4.03;;;3.60;;
40314;SDS011;26021;45.640;11.302;2022-09-27T15:07:43;5.22;;;4.65;;
40314;SDS011;26021;45.640;11.302;2022-09-27T15:10:17;6.50;;;5.10;;
40314;SDS011;26021;45.640;11.302;2022-09-27T15:12:44;13.40;;;6.18;;
40314;SDS011;26021;45.640;11.302;2022-09-27T15:15:15;5.32;;;4.07;;
40314;SDS011;26021;45.640;11.302;2022-09-27T15:17:45;4.38;;;3.90;;
40314;SDS011;26021;45.640;11.302;2022-09-27T15:22:54;7.85;;;6.88;;
40314;SDS011;26021;45.640;11.302;2022-09-27T15:25:33;6.10;;;5.50;;
40314;SDS011;26021;45.640;11.302;2022-09-27T15:30:37;6.65;;;5.70;;
40314;SDS011;26021;45.640;11.302;2022-09-27T15:33:06;8.95;;;7.60;;
40314;SDS011;26021;45.640;11.302;2022-09-27T15:35:48;8.75;;;7.85;;
40314;SDS011;26021;45.640;11.302;2022-09-27T15:45:59;9.07;;;6.75;;
40314;SDS011;26021;45.640;11.302;2022-09-27T15:48:28;6.93;;;6.25;;
40314;SDS011;26021;45.640;11.302;2022-09-27T15:50:56;13.70;;;9.57;;
40314;SDS011;26021;45.640;11.302;2022-09-27T15:55:59;7.05;;;4.93;;
40314;SDS011;26021;45.640;11.302;2022-09-27T15:58:33;8.43;;;4.82;;
40314;SDS011;26021;45.640;11.302;2022-09-27T16:01:00;7.00;;;5.00;;
40314;SDS011;26021;45.640;11.302;2022-09-27T16:03:27;6.13;;;5.53;;
40314;SDS011;26021;45.640;11.302;2022-09-27T16:05:56;6.30;;;5.47;;
40314;SDS011;26021;45.640;11.302;2022-09-27T16:08:26;17.50;;;13.35;;
40314;SDS011;26021;45.640;11.302;2022-09-27T16:10:53;7.57;;;6.78;;
40314;SDS011;26021;45.640;11.302;2022-09-27T16:13:21;7.88;;;5.88;;
40314;SDS011;26021;45.640;11.302;2022-09-27T16:15:47;6.03;;;5.38;;
40314;SDS011;26021;45.640;11.302;2022-09-27T16:18:13;8.40;;;5.78;;
40314;SDS011;26021;45.640;11.302;2022-09-27T16:20:39;5.43;;;5.00;;
40314;SDS011;26021;45.640;11.302;2022-09-27T16:23:04;6.70;;;5.47;;
40314;SDS011;26021;45.640;11.302;2022-09-27T16:25:30;5.93;;;5.32;;
40314;SDS011;26021;45.640;11.302;2022-09-27T16:27:56;7.03;;;5.30;;
40314;SDS011;26021;45.640;11.302;2022-09-27T16:30:22;8.68;;;5.32;;
40314;SDS011;26021;45.640;11.302;2022-09-27T16:32:48;5.55;;;5.00;;
40314;SDS011;26021;45.640;11.302;2022-09-27T16:35:14;6.97;;;5.63;;
40314;SDS011;26021;45.640;11.302;2022-09-27T16:37:41;7.13;;;5.05;;
40314;SDS011;26021;45.640;11.302;2022-09-27T16:40:07;5.75;;;5.20;;
40314;SDS011;26021;45.640;11.302;2022-09-27T16:42:34;8.15;;;6.50;;
40314;SDS011;26021;45.640;11.302;2022-09-27T16:45:00;10.15;;;6.78;;
40314;SDS011;26021;45.640;11.302;2022-09-27T16:47:26;8.43;;;6.57;;
40314;SDS011;26021;45.640;11.302;2022-09-27T16:49:55;7.65;;;6.82;;
40314;SDS011;26021;45.640;11.302;2022-09-27T16:52:39;11.30;;;8.75;;
40314;SDS011;26021;45.640;11.302;2022-09-27T16:55:06;8.02;;;7.20;;
40314;SDS011;26021;45.640;11.302;2022-09-27T16:57:32;8.77;;;7.10;;
40314;SDS011;26021;45.640;11.302;2022-09-27T17:00:02;10.85;;;7.97;;
40314;SDS011;26021;45.640;11.302;2022-09-27T17:02:28;10.50;;;7.53;;
40314;SDS011;26021;45.640;11.302;2022-09-27T17:04:54;11.77;;;7.28;;
40314;SDS011;26021;45.640;11.302;2022-09-27T17:07:20;15.35;;;12.30;;
40314;SDS011;26021;45.640;11.302;2022-09-27T17:09:45;14.27;;;12.27;;
40314;SDS011;26021;45.640;11.302;2022-09-27T17:12:11;12.82;;;11.48;;
40314;SDS011;26021;45.640;11.302;2022-09-27T17:14:38;10.90;;;8.93;;
40314;SDS011;26021;45.640;11.302;2022-09-27T17:17:05;23.23;;;16.80;;
40314;SDS011;26021;45.640;11.302;2022-09-27T17:19:31;12.75;;;9.73;;
40314;SDS011;26021;45.640;11.302;2022-09-27T17:21:57;11.93;;;10.73;;
40314;SDS011;26021;45.640;11.302;2022-09-27T17:24:23;12.25;;;10.77;;
40314;SDS011;26021;45.640;11.302;2022-09-27T17:26:49;21.38;;;12.40;;
40314;SDS011;26021;45.640;11.302;2022-09-27T17:29:15;11.77;;;10.45;;
40314;SDS011;26021;45.640;11.302;2022-09-27T17:31:41;14.23;;;11.13;;
40314;SDS011;26021;45.640;11.302;2022-09-27T17:34:07;12.90;;;11.35;;
40314;SDS011;26021;45.640;11.302;2022-09-27T17:36:38;13.30;;;10.93;;
40314;SDS011;26021;45.640;11.302;2022-09-27T17:39:05;11.23;;;10.18;;
40314;SDS011;26021;45.640;11.302;2022-09-27T17:41:31;12.63;;;11.20;;
40314;SDS011;26021;45.640;11.302;2022-09-27T17:43:59;11.98;;;10.77;;
40314;SDS011;26021;45.640;11.302;2022-09-27T17:46:26;13.02;;;10.75;;
40314;SDS011;26021;45.640;11.302;2022-09-27T17:48:54;12.98;;;11.68;;
40314;SDS011;26021;45.640;11.302;2022-09-27T17:51:38;12.07;;;10.23;;
40314;SDS011;26021;45.640;11.302;2022-09-27T17:54:05;12.75;;;10.10;;
40314;SDS011;26021;45.640;11.302;2022-09-27T17:56:38;13.57;;;9.90;;
40314;SDS011;26021;45.640;11.302;2022-09-27T17:59:05;13.00;;;11.63;;